Pagrindinis puslapis
METAR-TAF:

METAR-TAF

Oro uostai :

Abu Dabis, Jungtiniai Arabų Emyratai

platuma: 24-26N, ilguma: 054-28E, Aukštis: 5 m

Dabartinis oras

Ataskaita buvo paskelbta 30 minutes, ne 10:00 UTC
Vėjas 4 kt iš Pietvakarių, svyruoja nuo Pietų/Pietryčių ir Vakarų
Temperatūra 31°C
Drėgmė 31%
Slėgis 1014 hPa
Matomumas 10 km arba daugiau
nėra debesų žemiau 1500 m ir nėra kamuolinių lietaus debesų

METAR: OMAD 071000Z 22004KT 150V280 CAVOK 31/12 Q1014 BECMG 33010KT

Laikas: 14:30 (10:30 UTC)

Prognozė

Ataskaita buvo paskelbta 5 valandos ir 30 minutes, ne 05:00 UTC
Prognozė galioja nuo 07 metu 06 UTC su 08 metu 12 UTC
Vėjas 9 kt iš Pietų/Pietryčių
Matomumas: 8000 m
Tapsmas
nuo 07 metu 09 UTC su 07 metu 11 UTC
Vėjas 10 kt iš Šiaurės/Šiaurės Vakarų
Tapsmas
nuo 07 metu 17 UTC su 07 metu 19 UTC
Vėjas 5 kt iš Rytų/Šiaurės Rytų
Tapsmas
nuo 08 metu 08 UTC su 08 metu 10 UTC
Vėjas 12 kt iš Šiaurės Vakarų

TAF: OMAD 070500Z 0706/0812 16009KT 8000 NSC BECMG 0709/0711 33010KT BECMG 0717/0719 06005KT BECMG 0808/0810 32012KT

Orai ataskaitas ir orų prognozės (METAR, TAF).

turimą stotys yra geltonos ir raudonos taškus žemėlapyje.

Perkelti pele per norėdami pamatyti stoties vardą.

Tada spustelėkite, norėdami matyti oro stebėjimo ir prognozės.

Norėdami pakeisti žemėlapį: spustelėkite ant žalios mygtukų su juodo kryžiaus žemyn,; žalią mygtuką su brūkšneliu, jei norite nutolinti; arba žalių rodyklių gretimoms žemėlapius.


METAR-TAF: